createdAt,value
2018-05-08T00:02:20.004Z,18.59
2018-05-08T00:04:48.178Z,18.46
2018-05-08T00:07:16.360Z,18.40
2018-05-08T00:09:44.552Z,18.34
2018-05-08T00:12:12.745Z,18.31
2018-05-08T00:14:40.906Z,18.27
2018-05-08T00:17:09.091Z,18.29
2018-05-08T00:19:37.266Z,18.25
2018-05-08T00:22:05.451Z,18.24
2018-05-08T00:24:33.604Z,18.26
2018-05-08T00:27:01.790Z,18.22
2018-05-08T00:29:29.958Z,18.13
2018-05-08T00:31:58.152Z,18.10
2018-05-08T00:34:26.313Z,18.03
2018-05-08T00:36:54.495Z,18.00
2018-05-08T00:39:22.653Z,17.95
2018-05-08T00:41:50.859Z,17.94
2018-05-08T00:44:19.065Z,17.91
2018-05-08T00:46:47.221Z,17.89
2018-05-08T00:49:15.821Z,17.83
2018-05-08T00:51:43.992Z,17.80
2018-05-08T00:54:12.178Z,17.74
2018-05-08T00:56:40.382Z,17.71
2018-05-08T00:59:08.539Z,17.71
2018-05-08T01:01:36.731Z,17.68
2018-05-08T01:04:04.899Z,17.74
2018-05-08T01:06:33.119Z,17.71
2018-05-08T01:09:01.306Z,17.66
2018-05-08T01:11:29.520Z,17.63
2018-05-08T01:13:57.678Z,17.60
2018-05-08T01:16:25.895Z,17.62
2018-05-08T01:18:54.080Z,17.60
2018-05-08T01:21:22.252Z,17.59
2018-05-08T01:23:50.452Z,17.55
2018-05-08T01:26:18.669Z,17.51
2018-05-08T01:28:46.846Z,17.52
2018-05-08T01:31:15.040Z,17.48
2018-05-08T01:33:43.207Z,17.44
2018-05-08T01:36:11.407Z,17.38
2018-05-08T01:38:39.540Z,17.33
2018-05-08T01:41:07.730Z,17.24
2018-05-08T01:43:35.919Z,17.29
2018-05-08T01:46:04.099Z,17.30
2018-05-08T01:48:32.272Z,17.32
2018-05-08T01:51:00.454Z,17.34
2018-05-08T01:53:28.608Z,17.42
2018-05-08T01:55:56.796Z,17.40
2018-05-08T01:58:24.945Z,17.36
2018-05-08T02:00:53.103Z,17.33
2018-05-08T02:03:21.272Z,17.30
2018-05-08T02:05:49.425Z,17.26
2018-05-08T02:08:17.614Z,17.28
2018-05-08T02:10:45.815Z,17.32
2018-05-08T02:13:13.982Z,17.37
2018-05-08T02:15:42.163Z,17.33
2018-05-08T02:18:10.328Z,17.29
2018-05-08T02:20:38.542Z,17.27
2018-05-08T02:23:06.688Z,17.25
2018-05-08T02:25:34.857Z,17.29
2018-05-08T02:28:03.045Z,17.32
2018-05-08T02:30:31.226Z,17.35
2018-05-08T02:32:59.400Z,17.34
2018-05-08T02:35:27.580Z,17.30
2018-05-08T02:37:55.774Z,17.27
2018-05-08T02:40:23.961Z,17.28
2018-05-08T02:42:52.151Z,17.27
2018-05-08T02:45:20.346Z,17.27
2018-05-08T02:47:48.529Z,17.30
2018-05-08T02:50:16.720Z,17.37
2018-05-08T02:52:44.855Z,17.36
2018-05-08T02:55:13.020Z,17.35
2018-05-08T02:57:41.213Z,17.36
2018-05-08T03:00:09.386Z,17.30
2018-05-08T03:02:37.560Z,17.25
2018-05-08T03:05:05.733Z,17.24
2018-05-08T03:07:33.898Z,17.20
2018-05-08T03:10:02.094Z,17.21
2018-05-08T03:12:30.269Z,17.17
2018-05-08T03:14:58.476Z,17.11
2018-05-08T03:17:26.637Z,17.09
2018-05-08T03:19:54.785Z,17.09
2018-05-08T03:22:23.038Z,17.13
2018-05-08T03:24:51.123Z,17.06
2018-05-08T03:27:19.286Z,17.08
2018-05-08T03:29:47.473Z,17.08
2018-05-08T03:32:15.703Z,17.09
2018-05-08T03:34:43.889Z,17.07
2018-05-08T03:37:12.089Z,17.04
2018-05-08T03:39:40.285Z,16.99
2018-05-08T03:42:08.469Z,16.92
2018-05-08T03:44:36.683Z,16.87
2018-05-08T03:47:04.798Z,16.85
2018-05-08T03:49:32.985Z,16.85
2018-05-08T03:52:01.134Z,16.82
2018-05-08T03:54:29.305Z,16.80
2018-05-08T03:56:57.490Z,16.77
2018-05-08T03:59:25.688Z,16.74
2018-05-08T04:02:30.467Z,16.73
2018-05-08T04:05:46.441Z,16.72
2018-05-08T04:08:31.117Z,16.69
2018-05-08T04:10:59.285Z,16.63
2018-05-08T04:13:27.468Z,16.60
2018-05-08T04:15:55.659Z,16.57
2018-05-08T04:18:24.955Z,16.49
2018-05-08T04:20:53.147Z,16.43
2018-05-08T04:23:21.330Z,16.37
2018-05-08T04:25:49.481Z,16.35
2018-05-08T04:28:17.688Z,16.29
2018-05-08T04:30:45.844Z,16.25
2018-05-08T04:33:14.007Z,16.22
2018-05-08T04:35:42.193Z,16.21
2018-05-08T04:38:10.355Z,16.22
2018-05-08T04:40:38.542Z,16.23
2018-05-08T04:43:06.742Z,16.26
2018-05-08T04:45:34.929Z,16.29
2018-05-08T04:48:03.147Z,16.31
2018-05-08T04:50:31.335Z,16.34
2018-05-08T04:52:59.492Z,16.40
2018-05-08T04:55:27.688Z,16.46
2018-05-08T04:57:55.863Z,16.50
2018-05-08T05:00:24.022Z,16.58
2018-05-08T05:02:52.206Z,16.62
2018-05-08T05:05:20.379Z,16.64
2018-05-08T05:07:48.554Z,16.72
2018-05-08T05:10:16.733Z,16.75
2018-05-08T05:12:44.916Z,16.79
2018-05-08T05:15:13.108Z,16.85
2018-05-08T05:17:41.251Z,16.92
2018-05-08T05:20:09.496Z,17.03
2018-05-08T05:22:37.663Z,17.15
2018-05-08T05:25:05.837Z,17.20
2018-05-08T05:27:34.039Z,17.27
2018-05-08T05:30:02.212Z,17.38
2018-05-08T05:32:30.394Z,17.47
2018-05-08T05:34:58.576Z,17.57
2018-05-08T05:37:26.796Z,17.62
2018-05-08T05:39:54.969Z,17.65
2018-05-08T05:42:23.136Z,17.72
2018-05-08T05:44:51.322Z,17.82
2018-05-08T05:47:19.485Z,17.93
2018-05-08T05:49:47.646Z,18.05
2018-05-08T05:52:15.812Z,18.20
2018-05-08T05:54:44.003Z,18.38
2018-05-08T05:57:12.167Z,18.59
2018-05-08T05:59:40.378Z,18.77
2018-05-08T06:02:08.546Z,18.92
2018-05-08T06:04:36.724Z,19.10
2018-05-08T06:07:04.911Z,19.53
2018-05-08T06:09:33.120Z,19.67
2018-05-08T06:12:01.381Z,19.73
2018-05-08T06:14:29.484Z,19.87
2018-05-08T06:16:57.705Z,20.57
2018-05-08T06:19:25.917Z,22.39
2018-05-08T06:21:54.252Z,23.66
2018-05-08T06:24:22.434Z,23.80
2018-05-08T06:26:50.611Z,24.74
2018-05-08T06:29:18.824Z,26.88
2018-05-08T06:31:47.020Z,28.64
2018-05-08T06:34:15.252Z,30.04
2018-05-08T06:36:43.425Z,30.99
2018-05-08T06:39:11.778Z,31.84
2018-05-08T06:41:39.857Z,32.69
2018-05-08T06:44:08.018Z,33.51
2018-05-08T06:46:36.216Z,34.43
2018-05-08T06:49:04.397Z,35.09
2018-05-08T06:51:32.597Z,35.66
2018-05-08T06:54:00.745Z,35.86
2018-05-08T06:56:28.932Z,35.98
2018-05-08T06:58:57.128Z,36.22
2018-05-08T07:01:25.335Z,36.30
2018-05-08T07:03:55.566Z,36.50
2018-05-08T07:06:29.203Z,36.67
2018-05-08T07:08:57.420Z,36.93
2018-05-08T07:11:25.611Z,36.45
2018-05-08T07:13:53.813Z,36.59
2018-05-08T07:16:21.997Z,36.47
2018-05-08T07:18:50.180Z,36.64
2018-05-08T07:21:18.376Z,37.01
2018-05-08T07:23:46.531Z,36.89
2018-05-08T07:26:14.726Z,37.02
2018-05-08T07:32:15.046Z,37.66
2018-05-08T07:34:43.242Z,37.70
2018-05-08T07:37:11.414Z,37.65
2018-05-08T07:39:39.587Z,37.52
2018-05-08T07:42:07.788Z,37.30
2018-05-08T07:44:35.967Z,37.45
2018-05-08T07:47:04.136Z,37.77
2018-05-08T07:49:32.396Z,37.51
2018-05-08T07:52:00.579Z,37.89
2018-05-08T07:54:37.721Z,37.53
2018-05-08T07:57:05.977Z,37.76
2018-05-08T07:59:34.297Z,37.99
2018-05-08T08:02:02.505Z,38.29
2018-05-08T08:04:30.794Z,38.81
2018-05-08T08:06:58.928Z,39.10
2018-05-08T08:09:27.110Z,39.20
2018-05-08T08:11:55.286Z,38.74
2018-05-08T08:14:23.553Z,38.82
2018-05-08T08:16:51.931Z,39.24
2018-05-08T08:19:20.141Z,39.37
2018-05-08T08:21:48.390Z,39.67
2018-05-08T08:24:16.557Z,39.94
2018-05-08T08:26:44.759Z,39.73
2018-05-08T08:29:12.958Z,39.87
2018-05-08T08:31:41.213Z,39.93
2018-05-08T08:34:09.378Z,39.77
2018-05-08T08:36:37.642Z,39.81
2018-05-08T08:39:06.048Z,39.64
2018-05-08T08:41:34.247Z,39.80
2018-05-08T08:44:02.456Z,39.91
2018-05-08T08:46:30.664Z,39.82
2018-05-08T08:48:58.862Z,40.10
2018-05-08T08:51:27.084Z,40.38
2018-05-08T08:53:55.266Z,40.69
2018-05-08T08:56:23.449Z,41.03
2018-05-08T08:58:51.627Z,41.16
2018-05-08T09:01:21.311Z,41.36
2018-05-08T09:03:49.587Z,41.48
2018-05-08T09:06:17.756Z,41.25
2018-05-08T09:08:45.933Z,41.12
2018-05-08T09:11:14.249Z,41.18
2018-05-08T09:13:42.347Z,40.92
2018-05-08T09:16:10.538Z,40.78
2018-05-08T09:18:38.773Z,40.59
2018-05-08T09:21:06.931Z,41.01
2018-05-08T09:23:35.193Z,41.08
2018-05-08T09:26:03.382Z,41.35
2018-05-08T09:28:31.625Z,41.22
2018-05-08T09:30:59.836Z,41.24
2018-05-08T09:33:28.002Z,41.61
2018-05-08T09:35:56.190Z,41.34
2018-05-08T09:38:24.387Z,41.36
2018-05-08T09:40:52.612Z,41.03
2018-05-08T09:43:20.784Z,40.54
2018-05-08T09:45:49.979Z,40.72
2018-05-08T09:48:18.167Z,40.89
2018-05-08T09:50:46.333Z,41.03
2018-05-08T09:53:14.507Z,41.46
2018-05-08T09:55:42.704Z,41.12
2018-05-08T09:58:10.852Z,41.19
2018-05-08T10:00:38.995Z,40.80
2018-05-08T10:03:07.207Z,41.04
2018-05-08T10:05:35.362Z,40.88
2018-05-08T10:08:09.698Z,41.16
2018-05-08T10:10:37.853Z,40.86
2018-05-08T10:13:06.053Z,41.14
2018-05-08T10:15:34.172Z,41.42
2018-05-08T10:18:02.371Z,41.35
2018-05-08T10:20:30.571Z,41.33
2018-05-08T10:22:58.723Z,41.57
2018-05-08T10:25:26.889Z,41.53
2018-05-08T10:27:55.080Z,41.60
2018-05-08T10:30:23.239Z,41.52
2018-05-08T10:32:51.415Z,41.60
2018-05-08T10:35:19.620Z,41.66
2018-05-08T10:37:47.792Z,41.10
2018-05-08T10:40:15.965Z,41.15
2018-05-08T10:42:44.117Z,41.22
2018-05-08T10:45:12.310Z,41.24
2018-05-08T10:47:40.468Z,41.05
2018-05-08T10:50:08.638Z,41.01
2018-05-08T10:52:36.841Z,40.77
2018-05-08T10:55:05.001Z,40.66
2018-05-08T10:57:33.258Z,40.27
2018-05-08T11:00:01.561Z,39.93
2018-05-08T11:02:29.714Z,39.81
2018-05-08T11:04:57.896Z,39.94
2018-05-08T11:07:26.050Z,40.13
2018-05-08T11:09:54.281Z,40.38
2018-05-08T11:12:22.474Z,40.28
2018-05-08T11:14:50.680Z,39.91
2018-05-08T11:17:18.868Z,39.78
2018-05-08T11:19:47.150Z,39.72
2018-05-08T11:22:15.226Z,39.46
2018-05-08T11:24:43.484Z,39.05
2018-05-08T11:27:11.591Z,39.21
2018-05-08T11:29:39.743Z,39.50
2018-05-08T11:32:07.917Z,39.71
2018-05-08T11:34:36.155Z,39.54
2018-05-08T11:37:04.330Z,38.91
2018-05-08T11:39:32.514Z,39.01
2018-05-08T11:42:00.678Z,38.67
2018-05-08T11:44:28.863Z,38.50
2018-05-08T11:46:57.088Z,37.63
2018-05-08T11:49:25.281Z,37.14
2018-05-08T11:51:53.452Z,36.81
2018-05-08T11:54:21.676Z,36.22
2018-05-08T11:56:49.897Z,35.69
2018-05-08T11:59:18.045Z,35.27
2018-05-08T12:01:46.230Z,34.58
2018-05-08T12:04:14.525Z,34.16
2018-05-08T12:06:42.723Z,34.03
2018-05-08T12:09:10.979Z,33.71
2018-05-08T12:11:39.163Z,33.53
2018-05-08T12:14:07.344Z,33.42
2018-05-08T12:16:35.490Z,33.17
2018-05-08T12:19:03.680Z,33.03
2018-05-08T12:21:31.883Z,32.97
2018-05-08T12:24:00.090Z,32.91
2018-05-08T12:26:28.231Z,32.70
2018-05-08T12:28:56.459Z,32.60
2018-05-08T12:31:24.602Z,32.43
2018-05-08T12:33:52.814Z,32.35
2018-05-08T12:36:20.985Z,32.21
2018-05-08T12:38:49.253Z,32.02
2018-05-08T12:41:17.480Z,32.11
2018-05-08T12:43:45.706Z,32.09
2018-05-08T12:46:13.898Z,31.93
2018-05-08T12:48:42.135Z,31.78
2018-05-08T12:51:10.348Z,31.95
2018-05-08T12:53:38.520Z,32.08
2018-05-08T12:56:06.962Z,32.10
2018-05-08T12:58:35.159Z,32.16
2018-05-08T13:01:03.363Z,32.13
2018-05-08T13:03:31.541Z,32.30
2018-05-08T13:05:59.733Z,32.24
2018-05-08T13:08:27.925Z,32.20
2018-05-08T13:10:56.196Z,32.22
2018-05-08T13:13:24.286Z,32.17
2018-05-08T13:15:52.455Z,32.09
2018-05-08T13:18:20.762Z,32.07
2018-05-08T13:20:48.820Z,32.01
2018-05-08T13:23:17.079Z,31.96
2018-05-08T13:28:12.609Z,32.05
2018-05-08T13:30:40.885Z,31.95
2018-05-08T13:33:09.023Z,31.89
2018-05-08T13:35:37.183Z,31.81
2018-05-08T13:38:05.596Z,31.86
2018-05-08T13:40:33.789Z,31.83
2018-05-08T13:43:02.014Z,31.81
2018-05-08T13:45:30.264Z,31.71
2018-05-08T13:47:58.463Z,31.65
2018-05-08T13:50:26.781Z,31.81
2018-05-08T13:52:54.878Z,31.80
2018-05-08T13:55:25.192Z,31.68
2018-05-08T13:57:56.187Z,31.67
2018-05-08T14:00:24.449Z,31.55
2018-05-08T14:02:52.634Z,31.59
2018-05-08T14:05:20.790Z,31.48
2018-05-08T14:07:48.968Z,31.43
2018-05-08T14:10:17.164Z,31.38
2018-05-08T14:12:45.348Z,31.28
2018-05-08T14:15:13.529Z,31.31
2018-05-08T14:17:41.723Z,31.33
2018-05-08T14:20:09.913Z,31.30
2018-05-08T14:22:38.093Z,31.26
2018-05-08T14:25:06.270Z,31.36
2018-05-08T14:27:34.462Z,31.49
2018-05-08T14:30:02.665Z,31.51
2018-05-08T14:32:30.876Z,31.45
2018-05-08T14:34:59.043Z,31.35
2018-05-08T14:37:27.276Z,31.29
2018-05-08T14:39:55.469Z,31.35
2018-05-08T14:42:23.670Z,31.23
2018-05-08T14:44:51.857Z,31.18
2018-05-08T14:47:20.057Z,31.14
2018-05-08T14:49:48.257Z,31.07
2018-05-08T14:52:16.464Z,31.10
2018-05-08T14:54:44.692Z,31.08
2018-05-08T14:57:12.864Z,31.12
2018-05-08T14:59:41.005Z,31.17
2018-05-08T15:02:09.205Z,31.15
2018-05-08T15:04:37.354Z,31.04
2018-05-08T15:07:05.755Z,30.99
2018-05-08T15:09:33.922Z,30.97
2018-05-08T15:12:02.092Z,30.74
2018-05-08T15:14:30.273Z,30.55
2018-05-08T15:16:58.421Z,30.63
2018-05-08T15:19:26.619Z,30.68
2018-05-08T15:21:54.974Z,30.65
2018-05-08T15:24:23.042Z,30.71
2018-05-08T15:26:51.230Z,30.73
2018-05-08T15:29:19.388Z,30.77
2018-05-08T15:31:47.592Z,30.75
2018-05-08T15:34:15.761Z,30.74
2018-05-08T15:36:43.920Z,30.75
2018-05-08T15:39:12.091Z,30.72
2018-05-08T15:41:43.761Z,30.74
2018-05-08T15:44:11.961Z,30.70
2018-05-08T15:46:40.245Z,30.71
2018-05-08T15:49:08.459Z,30.70
2018-05-08T15:51:36.670Z,30.66
2018-05-08T15:54:04.916Z,30.64
2018-05-08T15:56:33.290Z,30.62
2018-05-08T15:59:01.499Z,30.66
2018-05-08T16:01:29.655Z,30.72
2018-05-08T16:03:57.841Z,30.85
2018-05-08T16:06:26.046Z,30.81
2018-05-08T16:08:54.179Z,30.80
2018-05-08T16:11:22.362Z,30.86
2018-05-08T16:13:50.528Z,30.84
2018-05-08T16:16:18.733Z,30.72
2018-05-08T16:18:46.917Z,30.68
2018-05-08T16:21:15.107Z,30.70
2018-05-08T16:23:43.298Z,30.72
2018-05-08T16:26:11.564Z,30.76
2018-05-08T16:28:39.754Z,30.61
2018-05-08T16:31:07.953Z,30.54
2018-05-08T16:33:36.125Z,30.42
2018-05-08T16:36:04.361Z,30.39
2018-05-08T16:38:32.668Z,30.24
2018-05-08T16:41:00.854Z,30.14
2018-05-08T16:43:29.036Z,30.14
2018-05-08T16:45:57.203Z,30.12
2018-05-08T16:48:31.367Z,30.13
2018-05-08T16:50:59.510Z,30.17
2018-05-08T16:53:27.696Z,30.14
2018-05-08T16:55:55.889Z,30.01
2018-05-08T16:58:24.076Z,29.96
2018-05-08T17:00:52.276Z,29.96
2018-05-08T17:03:20.509Z,30.01
2018-05-08T17:05:48.702Z,30.00
2018-05-08T17:08:16.904Z,29.93
2018-05-08T17:10:48.171Z,29.88
2018-05-08T17:13:16.401Z,29.87
2018-05-08T17:15:44.589Z,29.74
2018-05-08T17:18:12.778Z,29.74
2018-05-08T17:20:40.958Z,29.74
2018-05-08T17:23:09.147Z,29.77
2018-05-08T17:25:37.390Z,29.75
2018-05-08T17:28:05.507Z,29.71
2018-05-08T17:30:33.706Z,29.64
2018-05-08T17:33:01.911Z,29.61
2018-05-08T17:35:30.985Z,29.62
2018-05-08T17:37:59.184Z,29.62
2018-05-08T17:40:27.379Z,29.56
2018-05-08T17:42:55.607Z,29.52
2018-05-08T17:45:23.883Z,29.49
2018-05-08T17:47:52.103Z,29.43
2018-05-08T17:50:20.302Z,29.33
2018-05-08T17:52:48.540Z,29.29
2018-05-08T17:55:16.907Z,29.24
2018-05-08T17:57:45.113Z,29.18
2018-05-08T18:00:13.658Z,29.07
2018-05-08T18:02:41.837Z,28.94
2018-05-08T18:05:10.089Z,28.82
2018-05-08T18:07:38.257Z,28.68
2018-05-08T18:10:06.799Z,28.54
2018-05-08T18:12:35.075Z,28.45
2018-05-08T18:15:03.296Z,28.37
2018-05-08T18:17:31.542Z,28.21
2018-05-08T18:19:59.691Z,28.11
2018-05-08T18:22:27.890Z,28.03
2018-05-08T18:24:56.084Z,27.86
2018-05-08T18:27:24.314Z,27.68
2018-05-08T18:29:52.497Z,27.55
2018-05-08T18:32:20.734Z,27.42
2018-05-08T18:34:48.916Z,27.30
2018-05-08T18:37:17.107Z,27.19
2018-05-08T18:39:45.268Z,27.05
2018-05-08T18:42:13.492Z,26.88
2018-05-08T18:44:42.540Z,26.74
2018-05-08T18:47:10.722Z,26.64
2018-05-08T18:49:39.055Z,26.48
2018-05-08T18:52:07.638Z,26.46
2018-05-08T18:54:35.761Z,26.27
2018-05-08T18:57:04.031Z,26.14
2018-05-08T18:59:32.115Z,25.96
2018-05-08T19:02:00.323Z,25.79
2018-05-08T19:04:28.496Z,25.64
2018-05-08T19:06:56.775Z,25.48
2018-05-08T19:09:25.108Z,25.37
2018-05-08T19:11:53.429Z,25.25
2018-05-08T19:14:22.637Z,25.13
2018-05-08T19:16:50.904Z,25.03
2018-05-08T19:19:37.508Z,24.93
2018-05-08T19:22:05.657Z,24.78
2018-05-08T19:24:34.465Z,24.67
2018-05-08T19:27:02.854Z,24.59
2018-05-08T19:29:59.392Z,24.52
2018-05-08T19:32:27.579Z,24.33
2018-05-08T19:35:14.938Z,24.18
2018-05-08T19:38:10.924Z,23.96
2018-05-08T19:40:39.103Z,23.78
2018-05-08T19:43:07.333Z,23.73
2018-05-08T19:45:35.528Z,23.61
2018-05-08T19:48:03.759Z,23.54
2018-05-08T19:50:31.931Z,23.39
2018-05-08T19:53:00.217Z,23.29
2018-05-08T19:55:28.443Z,23.25
2018-05-08T19:57:56.829Z,23.16
2018-05-08T20:00:25.052Z,23.08
2018-05-08T20:02:53.255Z,23.03
2018-05-08T20:05:21.414Z,22.96
2018-05-08T20:07:49.629Z,22.92
2018-05-08T20:10:17.773Z,22.89
2018-05-08T20:12:45.959Z,22.84
2018-05-08T20:15:14.152Z,22.75
2018-05-08T20:17:42.341Z,22.69
2018-05-08T20:20:12.012Z,22.67
2018-05-08T20:22:38.707Z,22.61
2018-05-08T20:25:10.100Z,22.56
2018-05-08T20:27:38.233Z,22.50
2018-05-08T20:30:06.452Z,22.42
2018-05-08T20:32:34.607Z,22.35
2018-05-08T20:35:02.999Z,22.28
2018-05-08T20:37:31.331Z,22.26
2018-05-08T20:39:59.628Z,22.17
2018-05-08T20:42:27.785Z,22.14
2018-05-08T20:44:55.973Z,22.16
2018-05-08T20:47:24.166Z,22.13
2018-05-08T20:49:52.357Z,22.08
2018-05-08T20:52:20.568Z,22.04
2018-05-08T20:54:48.756Z,21.97
2018-05-08T20:57:16.940Z,21.95
2018-05-08T20:59:45.135Z,21.86
2018-05-08T21:02:13.306Z,21.83
2018-05-08T21:04:41.512Z,21.78
2018-05-08T21:07:09.804Z,21.76
2018-05-08T21:09:38.018Z,21.79
2018-05-08T21:12:06.208Z,21.73
2018-05-08T21:14:34.386Z,21.65
2018-05-08T21:17:02.677Z,21.57
2018-05-08T21:19:30.849Z,21.52
2018-05-08T21:21:59.887Z,21.50
2018-05-08T21:24:28.006Z,21.41
2018-05-08T21:26:56.177Z,21.40
2018-05-08T21:29:44.281Z,21.39
2018-05-08T21:32:12.481Z,21.33
2018-05-08T21:34:40.662Z,21.28
2018-05-08T21:37:08.828Z,21.22
2018-05-08T21:39:37.014Z,21.15
2018-05-08T21:42:05.194Z,21.10
2018-05-08T21:44:33.384Z,21.07
2018-05-08T21:47:01.648Z,21.03
2018-05-08T21:49:29.824Z,20.93
2018-05-08T21:51:57.996Z,20.84
2018-05-08T21:54:26.203Z,20.79
2018-05-08T21:56:59.865Z,20.74
2018-05-08T21:59:28.005Z,20.68
2018-05-08T22:01:56.195Z,20.57
2018-05-08T22:04:24.371Z,20.50
2018-05-08T22:06:52.550Z,20.43
2018-05-08T22:09:20.721Z,20.38
2018-05-08T22:11:48.867Z,20.32
2018-05-08T22:14:17.082Z,20.25
2018-05-08T22:16:45.234Z,20.20
2018-05-08T22:19:13.424Z,20.17
2018-05-08T22:21:41.587Z,20.14
2018-05-08T22:24:09.735Z,20.08
2018-05-08T22:26:37.935Z,20.08
2018-05-08T22:29:06.156Z,20.06
2018-05-08T22:31:34.320Z,20.04
2018-05-08T22:34:02.521Z,19.98
2018-05-08T22:36:30.710Z,19.99
2018-05-08T22:38:58.909Z,19.94
2018-05-08T22:41:27.068Z,19.90
2018-05-08T22:43:55.247Z,19.85
2018-05-08T22:46:23.417Z,19.83
2018-05-08T22:48:51.649Z,19.77
2018-05-08T22:51:19.821Z,19.75
2018-05-08T22:53:48.000Z,19.76
2018-05-08T22:56:16.173Z,19.77
2018-05-08T22:58:44.355Z,19.76
2018-05-08T23:01:12.573Z,19.74
2018-05-08T23:03:40.738Z,19.76
2018-05-08T23:06:08.909Z,19.81
2018-05-08T23:08:37.065Z,19.79
2018-05-08T23:11:05.244Z,19.80
2018-05-08T23:13:33.655Z,19.75
2018-05-08T23:16:02.031Z,19.72
2018-05-08T23:18:30.255Z,19.69
2018-05-08T23:20:58.439Z,19.67
2018-05-08T23:23:26.612Z,19.70
2018-05-08T23:25:54.805Z,19.69
2018-05-08T23:28:22.996Z,19.77
2018-05-08T23:30:51.175Z,19.75
2018-05-08T23:33:19.335Z,19.70
2018-05-08T23:35:47.514Z,19.67
2018-05-08T23:38:15.771Z,19.64
2018-05-08T23:40:44.075Z,19.59
2018-05-08T23:43:12.223Z,19.55
2018-05-08T23:45:40.427Z,19.55
2018-05-08T23:48:08.616Z,19.52
2018-05-08T23:50:36.776Z,19.45
2018-05-08T23:53:04.922Z,19.38
2018-05-08T23:55:33.089Z,19.36
2018-05-08T23:58:01.279Z,19.33
